Time;durP1;ratioP1;P1;durP2;ratioP2;P2;SDS_P1;SDS_P2;PMS_P1;PMS_P2;Temp;Humidity;BMP_temperature;BMP_pressure;BME280_temperature;BME280_humidity;BME280_pressure;Samples;Min_cycle;Max_cycle;Signal;HPM_P1;HPM_P2
2022/04/05 00:01:54;;;;;;;13.57;12.20;;;5.50;97.80;;;;;;6326492;28;20478;-65
2022/04/05 00:04:58;;;;;;;12.50;10.57;;;5.50;97.80;;;;;;6327433;28;20475;-62
2022/04/05 00:08:02;;;;;;;15.27;12.37;;;5.60;97.70;;;;;;6326858;28;20580;-63
2022/04/05 00:11:05;;;;;;;12.20;11.00;;;5.60;97.50;;;;;;6328060;28;20475;-63
2022/04/05 00:14:09;;;;;;;11.90;10.53;;;5.70;97.40;;;;;;6327157;28;20839;-62
2022/04/05 00:17:12;;;;;;;12.30;11.20;;;5.70;97.30;;;;;;6327782;28;20967;-63
2022/04/05 00:20:17;;;;;;;12.07;10.77;;;5.70;97.10;;;;;;6327868;28;20559;-62
2022/04/05 00:23:20;;;;;;;12.73;11.40;;;5.70;97.10;;;;;;6320277;28;20604;-63
2022/04/05 00:26:24;;;;;;;12.70;11.40;;;5.70;97.00;;;;;;6313411;28;20477;-62
2022/04/05 00:29:27;;;;;;;11.97;10.73;;;5.70;97.00;;;;;;6307418;28;20468;-63
2022/04/05 00:32:30;;;;;;;16.40;11.47;;;5.70;97.00;;;;;;6307623;28;20508;-62
2022/04/05 00:35:35;;;;;;;11.63;10.43;;;5.70;97.10;;;;;;6302194;28;20938;-63
2022/04/05 00:38:38;;;;;;;11.90;10.80;;;5.70;97.10;;;;;;6303407;28;20940;-62
2022/04/05 00:41:41;;;;;;;12.60;11.37;;;5.70;97.20;;;;;;6315183;28;20779;-61
2022/04/05 00:44:44;;;;;;;12.97;11.30;;;5.60;97.10;;;;;;6319976;28;20454;-65
2022/04/05 00:47:49;;;;;;;12.73;11.37;;;5.60;97.30;;;;;;6323601;28;20464;-65
2022/04/05 00:50:54;;;;;;;12.20;11.00;;;5.60;97.30;;;;;;6313585;28;20558;-65
2022/04/05 00:54:04;;;;;;;14.40;12.07;;;5.60;97.20;;;;;;6308922;28;20807;-64
2022/04/05 00:57:11;;;;;;;14.03;10.70;;;5.70;97.20;;;;;;6310303;28;20475;-61
2022/04/05 01:00:15;;;;;;;11.93;10.60;;;5.70;97.20;;;;;;6315305;28;20539;-65
2022/04/05 01:03:18;;;;;;;10.93;9.83;;;5.70;97.20;;;;;;6311557;28;20536;-66
2022/04/05 01:06:28;;;;;;;11.67;10.50;;;5.60;97.20;;;;;;6321333;28;20789;-63
2022/04/05 01:09:31;;;;;;;14.20;10.43;;;5.60;97.30;;;;;;6318509;28;20469;-63
2022/04/05 01:12:34;;;;;;;11.87;10.47;;;5.60;97.30;;;;;;6311785;28;20516;-63
2022/04/05 01:15:38;;;;;;;10.93;9.83;;;5.60;97.30;;;;;;6313109;28;20464;-63
2022/04/05 01:18:41;;;;;;;11.23;10.03;;;5.60;97.40;;;;;;6311334;28;20476;-62
2022/04/05 01:21:46;;;;;;;14.13;11.13;;;5.60;97.30;;;;;;6311335;28;21013;-64
2022/04/05 01:24:51;;;;;;;11.23;10.13;;;5.60;97.30;;;;;;6310192;28;20475;-65
2022/04/05 01:27:54;;;;;;;11.50;10.30;;;5.60;97.30;;;;;;6303999;28;20466;-66
2022/04/05 01:30:58;;;;;;;13.20;10.70;;;5.70;97.20;;;;;;6309574;28;20460;-65
2022/04/05 01:34:01;;;;;;;12.20;9.80;;;5.70;97.20;;;;;;6325691;28;20483;-66
2022/04/05 01:37:06;;;;;;;12.10;10.83;;;5.70;97.20;;;;;;6326062;28;20480;-61
2022/04/05 01:40:12;;;;;;;12.93;10.87;;;5.60;97.10;;;;;;6325937;28;20471;-62
2022/04/05 01:43:15;;;;;;;11.33;10.07;;;5.60;97.20;;;;;;6325582;28;20947;-62
2022/04/05 01:46:19;;;;;;;12.00;10.80;;;5.60;97.20;;;;;;6325326;28;21348;-62
2022/04/05 01:49:22;;;;;;;13.90;10.57;;;5.60;97.30;;;;;;6325749;28;20472;-62
2022/04/05 01:52:25;;;;;;;13.63;10.30;;;5.70;97.30;;;;;;6325598;28;20765;-62
2022/04/05 01:55:29;;;;;;;11.60;10.10;;;5.50;97.20;;;;;;6325603;28;20491;-63
2022/04/05 01:58:35;;;;;;;11.87;10.17;;;5.50;97.30;;;;;;6325583;28;20480;-65
2022/04/05 02:01:39;;;;;;;11.70;10.50;;;5.40;97.50;;;;;;6325631;28;20475;-65
2022/04/05 02:04:42;;;;;;;14.47;11.60;;;5.40;97.50;;;;;;6325276;28;20489;-65
2022/04/05 02:07:45;;;;;;;12.40;11.23;;;5.30;97.50;;;;;;6325497;28;20471;-65
2022/04/05 02:10:50;;;;;;;12.10;10.80;;;5.20;97.60;;;;;;6325226;28;20472;-62
2022/04/05 02:13:53;;;;;;;11.97;10.73;;;5.20;97.70;;;;;;6325133;28;20485;-62
2022/04/05 02:16:56;;;;;;;11.67;10.57;;;5.20;97.90;;;;;;6314936;28;20471;-62
2022/04/05 02:20:00;;;;;;;11.30;10.20;;;5.20;98.00;;;;;;6325452;28;20482;-62
2022/04/05 02:23:03;;;;;;;10.47;9.60;;;5.10;98.00;;;;;;6325473;28;20483;-62
2022/04/05 02:26:08;;;;;;;12.57;10.97;;;5.00;98.00;;;;;;6325774;28;20471;-62
2022/04/05 02:29:11;;;;;;;11.47;10.37;;;5.00;98.10;;;;;;6325828;28;20828;-62
2022/04/05 02:32:14;;;;;;;13.00;10.20;;;4.90;98.30;;;;;;6306730;28;20487;-65
2022/04/05 02:35:18;;;;;;;11.50;9.87;;;4.90;98.40;;;;;;6300370;28;20469;-65
2022/04/05 02:38:21;;;;;;;12.03;9.23;;;4.90;98.40;;;;;;6299684;28;20805;-65
2022/04/05 02:41:26;;;;;;;11.33;10.10;;;4.90;98.50;;;;;;6300053;28;20546;-65
2022/04/05 02:44:30;;;;;;;12.57;9.40;;;4.80;98.50;;;;;;6299621;28;20462;-64
2022/04/05 02:47:33;;;;;;;11.00;9.73;;;4.80;99.00;;;;;;6300078;28;20440;-64
2022/04/05 02:50:36;;;;;;;10.97;9.87;;;4.80;98.60;;;;;;6300402;28;20444;-64
2022/04/05 02:53:40;;;;;;;9.93;8.97;;;4.80;98.60;;;;;;6299677;28;20491;-63
2022/04/05 02:56:44;;;;;;;10.80;9.70;;;4.70;98.60;;;;;;6300078;28;20452;-66
2022/04/05 02:59:47;;;;;;;10.90;9.00;;;4.70;98.70;;;;;;6299704;28;20468;-66
2022/04/05 03:02:51;;;;;;;10.73;9.63;;;4.80;98.80;;;;;;6299662;28;20486;-66
2022/04/05 03:05:54;;;;;;;11.90;8.60;;;4.80;98.70;;;;;;6299758;28;20547;-65
2022/04/05 03:08:58;;;;;;;10.50;9.43;;;4.80;98.70;;;;;;6299404;28;20468;-66
2022/04/05 03:12:02;;;;;;;12.83;9.37;;;4.80;98.70;;;;;;6299429;28;20474;-65
2022/04/05 03:15:08;;;;;;;10.03;9.00;;;4.80;98.60;;;;;;6299445;28;20479;-67
2022/04/05 03:18:11;;;;;;;9.70;8.90;;;4.70;98.70;;;;;;6298889;28;21026;-66
2022/04/05 03:21:14;;;;;;;9.33;8.50;;;4.80;98.70;;;;;;6299463;28;20485;-66
2022/04/05 03:24:17;;;;;;;10.77;9.80;;;4.80;98.70;;;;;;6298913;28;20485;-66
2022/04/05 03:27:22;;;;;;;11.30;9.63;;;4.80;99.00;;;;;;6299057;28;20482;-65
2022/04/05 03:30:25;;;;;;;14.50;10.37;;;4.70;98.80;;;;;;6298983;28;20490;-66
2022/04/05 03:33:29;;;;;;;10.80;9.70;;;4.80;98.80;;;;;;6302469;28;20854;-66
2022/04/05 03:36:33;;;;;;;12.10;10.63;;;4.80;98.70;;;;;;6304105;28;20491;-65
2022/04/05 03:39:36;;;;;;;10.73;9.70;;;4.70;98.70;;;;;;6304335;28;20482;-65
2022/04/05 03:42:41;;;;;;;15.13;11.20;;;4.70;98.80;;;;;;6304975;28;20474;-66
2022/04/05 03:45:44;;;;;;;13.40;11.13;;;4.70;99.00;;;;;;6306847;28;20471;-66
2022/04/05 03:48:47;;;;;;;12.03;10.73;;;4.60;99.00;;;;;;6307017;28;20473;-65
2022/04/05 03:51:50;;;;;;;13.50;11.10;;;4.60;99.10;;;;;;6307936;28;20512;-65
2022/04/05 03:54:53;;;;;;;14.83;12.10;;;4.50;99.10;;;;;;6306709;28;20483;-66
2022/04/05 03:57:58;;;;;;;18.43;11.87;;;4.50;99.40;;;;;;6304770;28;20478;-66
2022/04/05 04:01:01;;;;;;;13.17;11.87;;;4.40;99.60;;;;;;6304960;28;20478;-66
2022/04/05 04:04:04;;;;;;;14.87;12.37;;;4.30;99.90;;;;;;6305714;28;20948;-66
2022/04/05 04:07:07;;;;;;;12.90;11.57;;;4.30;99.90;;;;;;6306195;28;20472;-66
2022/04/05 04:10:11;;;;;;;14.70;12.77;;;4.30;99.90;;;;;;6304353;28;20468;-66
2022/04/05 04:13:15;;;;;;;12.03;10.40;;;4.30;99.90;;;;;;6303602;28;20480;-66
2022/04/05 04:16:18;;;;;;;14.60;13.10;;;4.30;99.90;;;;;;6304243;28;20483;-66
2022/04/05 04:19:21;;;;;;;13.83;12.37;;;4.30;99.90;;;;;;6303128;28;20475;-66
2022/04/05 04:22:26;;;;;;;13.13;11.73;;;4.30;99.90;;;;;;6302918;28;20480;-65
2022/04/05 04:25:30;;;;;;;18.47;11.37;;;4.40;99.90;;;;;;6302634;28;20487;-65
2022/04/05 04:28:36;;;;;;;12.20;10.90;;;4.40;99.90;;;;;;6302985;28;20467;-65
2022/04/05 04:31:39;;;;;;;12.00;10.10;;;4.40;99.90;;;;;;6302477;28;20473;-64
2022/04/05 04:34:43;;;;;;;14.63;11.13;;;4.50;99.90;;;;;;6302465;28;20968;-66
2022/04/05 04:37:46;;;;;;;12.07;10.87;;;4.50;99.90;;;;;;6302352;28;20505;-66
2022/04/05 04:40:50;;;;;;;12.27;9.93;;;4.50;99.90;;;;;;6302479;28;20971;-66
2022/04/05 04:43:55;;;;;;;10.67;9.67;;;4.50;99.90;;;;;;6300729;28;21004;-66
2022/04/05 04:46:58;;;;;;;11.60;10.40;;;4.60;99.90;;;;;;6302454;28;20471;-65
2022/04/05 04:50:01;;;;;;;11.03;9.83;;;4.60;99.90;;;;;;6302547;28;20490;-65
2022/04/05 04:53:05;;;;;;;14.93;10.23;;;4.70;99.90;;;;;;6302861;28;20475;-66
2022/04/05 04:56:08;;;;;;;12.83;10.67;;;4.70;99.90;;;;;;6302614;28;20955;-65
2022/04/05 04:59:14;;;;;;;17.77;9.93;;;4.70;99.90;;;;;;6301663;28;20538;-65
2022/04/05 05:02:17;;;;;;;11.03;9.93;;;4.70;99.90;;;;;;6301261;28;20998;-64
2022/04/05 05:05:21;;;;;;;12.57;10.57;;;4.80;99.80;;;;;;6301408;28;20478;-65
2022/04/05 05:08:24;;;;;;;12.13;10.60;;;4.80;99.60;;;;;;6301590;28;20805;-66
2022/04/05 05:11:27;;;;;;;11.17;10.13;;;4.90;99.60;;;;;;6296873;28;20473;-65
2022/04/05 05:14:31;;;;;;;11.73;10.50;;;5.00;99.50;;;;;;6298798;28;20487;-66
2022/04/05 05:17:35;;;;;;;11.80;10.33;;;5.00;99.20;;;;;;6301696;28;20444;-67
2022/04/05 05:20:38;;;;;;;13.33;10.20;;;5.00;99.20;;;;;;6302111;28;20475;-67
2022/04/05 05:23:41;;;;;;;16.23;11.33;;;5.00;99.20;;;;;;6301270;28;20786;-67
2022/04/05 05:26:44;;;;;;;13.53;11.30;;;5.10;99.30;;;;;;6300900;28;20468;-67
2022/04/05 05:29:48;;;;;;;12.40;10.23;;;5.20;99.10;;;;;;6300905;28;20880;-66
2022/04/05 05:32:52;;;;;;;10.90;9.40;;;5.30;98.80;;;;;;6301143;28;20468;-66
2022/04/05 05:35:55;;;;;;;11.90;10.50;;;5.50;98.70;;;;;;6300974;28;20485;-66
2022/04/05 05:38:58;;;;;;;13.93;11.07;;;5.50;98.40;;;;;;6300806;28;20478;-66
2022/04/05 05:42:01;;;;;;;14.10;10.77;;;5.60;98.30;;;;;;6300392;28;20480;-65
2022/04/05 05:45:07;;;;;;;9.80;8.80;;;5.70;98.10;;;;;;6300866;28;20475;-64
2022/04/05 05:48:11;;;;;;;12.47;10.30;;;5.80;97.70;;;;;;6300548;28;20492;-64
2022/04/05 05:51:14;;;;;;;13.97;9.20;;;5.90;97.50;;;;;;6300876;28;20534;-63
2022/04/05 05:54:17;;;;;;;14.03;11.20;;;6.00;97.30;;;;;;6299503;28;20488;-64
2022/04/05 05:57:20;;;;;;;11.73;9.93;;;6.10;97.20;;;;;;6299162;28;20477;-63
2022/04/05 06:00:24;;;;;;;13.37;11.43;;;6.10;97.00;;;;;;6300003;28;20469;-66
2022/04/05 06:03:28;;;;;;;12.80;11.60;;;6.20;96.80;;;;;;6310766;28;20490;-65
2022/04/05 06:06:31;;;;;;;10.60;9.47;;;6.20;96.70;;;;;;6323564;28;20479;-63
2022/04/05 06:09:34;;;;;;;11.00;10.00;;;6.20;96.80;;;;;;6324486;28;20992;-63
2022/04/05 06:12:40;;;;;;;11.37;9.70;;;6.30;96.80;;;;;;6319590;28;20476;-64
2022/04/05 06:15:45;;;;;;;13.53;11.40;;;6.30;96.80;;;;;;6323454;28;20613;-63
2022/04/05 06:18:48;;;;;;;11.23;10.03;;;6.40;96.60;;;;;;6324371;28;20472;-64
2022/04/05 06:21:51;;;;;;;12.80;10.40;;;6.50;96.30;;;;;;6324018;28;20935;-63
2022/04/05 06:24:54;;;;;;;12.60;10.23;;;6.50;96.10;;;;;;6324629;28;20456;-62
2022/04/05 06:27:58;;;;;;;11.40;9.13;;;6.60;95.60;;;;;;6323816;28;20483;-64
2022/04/05 06:31:03;;;;;;;14.53;11.20;;;6.50;95.60;;;;;;6323034;28;20975;-64
2022/04/05 06:34:06;;;;;;;14.33;10.10;;;6.50;95.60;;;;;;6323046;28;20464;-64
2022/04/05 06:37:09;;;;;;;15.07;11.00;;;6.60;95.60;;;;;;6322671;28;21049;-63
2022/04/05 06:40:14;;;;;;;16.40;13.67;;;6.50;96.00;;;;;;6322654;28;20990;-66
2022/04/05 06:43:20;;;;;;;14.67;10.77;;;6.50;96.40;;;;;;6323870;28;21043;-64
2022/04/05 06:46:25;;;;;;;15.50;12.70;;;6.50;96.50;;;;;;6324223;28;20979;-63
2022/04/05 06:49:29;;;;;;;17.43;11.60;;;6.60;96.50;;;;;;6324419;28;20496;-64
2022/04/05 06:52:32;;;;;;;13.43;11.70;;;6.60;96.40;;;;;;6324295;28;20483;-65
2022/04/05 06:55:35;;;;;;;11.83;10.00;;;6.60;96.60;;;;;;6324037;28;20477;-65
2022/04/05 06:58:38;;;;;;;10.93;9.63;;;6.70;96.30;;;;;;6324583;28;20472;-63
2022/04/05 07:01:43;;;;;;;12.73;9.60;;;6.70;95.70;;;;;;6324127;28;20486;-64
2022/04/05 07:04:46;;;;;;;10.03;8.70;;;6.80;95.40;;;;;;6324078;28;20464;-66
2022/04/05 07:07:49;;;;;;;10.20;9.07;;;6.80;95.00;;;;;;6327499;28;20480;-66
2022/04/05 07:10:52;;;;;;;10.63;8.30;;;6.80;94.80;;;;;;6329431;28;20483;-66
2022/04/05 07:13:56;;;;;;;9.27;8.47;;;6.90;94.50;;;;;;6329157;28;20469;-64
2022/04/05 07:17:00;;;;;;;12.73;7.80;;;7.00;94.30;;;;;;6329067;28;20484;-66
2022/04/05 07:20:07;;;;;;;9.30;8.43;;;7.10;94.20;;;;;;6324363;28;20575;-66
2022/04/05 07:23:10;;;;;;;10.03;8.80;;;7.20;94.00;;;;;;6328998;28;20483;-62
2022/04/05 07:26:13;;;;;;;10.63;8.73;;;7.30;93.80;;;;;;6328973;28;20472;-61
2022/04/05 07:29:16;;;;;;;10.03;9.00;;;7.30;93.50;;;;;;6328767;28;20849;-62
2022/04/05 07:32:21;;;;;;;13.40;9.47;;;7.30;93.50;;;;;;6329268;28;20952;-66
2022/04/05 07:35:24;;;;;;;9.50;8.27;;;7.40;93.60;;;;;;6329116;28;20487;-66
2022/04/05 07:38:27;;;;;;;10.47;8.53;;;7.60;93.60;;;;;;6328973;28;20808;-63
2022/04/05 07:41:30;;;;;;;9.10;8.20;;;7.70;93.40;;;;;;6328301;28;20453;-63
2022/04/05 07:44:33;;;;;;;10.73;9.47;;;7.80;93.10;;;;;;6328466;28;20916;-62
2022/04/05 07:47:39;;;;;;;9.50;8.57;;;7.80;92.80;;;;;;6328553;28;20441;-62
2022/04/05 07:50:42;;;;;;;12.97;10.83;;;7.90;92.60;;;;;;6328974;28;20441;-65
2022/04/05 07:53:46;;;;;;;13.73;11.30;;;8.00;92.80;;;;;;6328904;28;20551;-66
2022/04/05 07:56:50;;;;;;;15.07;11.43;;;8.00;93.00;;;;;;6328409;28;20453;-66
2022/04/05 07:59:53;;;;;;;16.17;13.50;;;8.10;93.20;;;;;;6328465;28;20908;-66
2022/04/05 08:02:57;;;;;;;16.10;12.63;;;8.20;93.20;;;;;;6325291;28;20469;-68
2022/04/05 08:06:01;;;;;;;16.63;11.37;;;8.30;93.20;;;;;;6295113;28;20478;-66
2022/04/05 08:09:05;;;;;;;13.97;12.33;;;8.50;93.00;;;;;;6283477;28;20466;-70
2022/04/05 08:12:09;;;;;;;12.70;11.40;;;8.50;92.80;;;;;;6288669;28;20826;-70
2022/04/05 08:15:13;;;;;;;11.63;10.37;;;8.60;92.40;;;;;;6302879;28;20481;-66
2022/04/05 08:18:19;;;;;;;12.43;9.83;;;8.70;92.10;;;;;;6302822;28;20979;-65
2022/04/05 08:21:23;;;;;;;13.87;10.30;;;8.80;91.60;;;;;;6277293;28;20470;-67
2022/04/05 08:24:26;;;;;;;13.30;9.77;;;8.90;91.30;;;;;;6277946;28;20484;-69
2022/04/05 08:27:29;;;;;;;10.97;9.87;;;9.00;90.90;;;;;;6313472;28;20465;-69
2022/04/05 08:30:33;;;;;;;12.53;10.53;;;9.10;90.80;;;;;;6328361;28;20469;-67
2022/04/05 08:33:37;;;;;;;10.90;9.80;;;9.20;90.30;;;;;;6328195;28;20791;-67
2022/04/05 08:36:40;;;;;;;12.83;10.60;;;9.30;90.10;;;;;;6328019;28;21078;-68
2022/04/05 08:39:44;;;;;;;12.27;9.77;;;9.40;90.20;;;;;;6308604;28;20465;-66
2022/04/05 08:42:49;;;;;;;12.23;9.50;;;9.50;89.60;;;;;;6313132;28;20941;-66
2022/04/05 08:45:58;;;;;;;12.43;9.90;;;9.60;89.80;;;;;;6314446;28;20457;-65
2022/04/05 08:49:03;;;;;;;11.43;10.37;;;9.60;88.80;;;;;;6310567;28;20457;-65
2022/04/05 08:52:06;;;;;;;14.30;10.30;;;9.70;88.60;;;;;;6304590;28;20977;-66
2022/04/05 08:55:10;;;;;;;9.43;8.63;;;9.80;88.00;;;;;;6302658;28;20839;-67
2022/04/05 08:58:13;;;;;;;11.73;10.73;;;9.90;87.50;;;;;;6302496;28;20476;-67
2022/04/05 09:01:16;;;;;;;10.60;8.70;;;10.00;85.30;;;;;;6302450;28;20476;-67
2022/04/05 09:04:21;;;;;;;11.20;10.20;;;10.10;84.00;;;;;;6285528;28;20475;-67
2022/04/05 09:07:26;;;;;;;10.50;9.03;;;10.20;82.60;;;;;;6252578;28;20486;-68
2022/04/05 09:10:29;;;;;;;9.70;7.80;;;10.20;82.30;;;;;;6252058;28;20491;-67
2022/04/05 09:13:33;;;;;;;9.93;8.70;;;10.40;82.10;;;;;;6300246;28;20969;-65
2022/04/05 09:16:36;;;;;;;11.93;8.50;;;10.50;82.00;;;;;;6301462;28;20487;-68
2022/04/05 09:19:45;;;;;;;9.67;8.63;;;10.50;81.30;;;;;;6310300;28;20470;-70
2022/04/05 09:22:49;;;;;;;8.60;7.80;;;10.60;81.00;;;;;;6311591;28;20464;-65
2022/04/05 09:25:57;;;;;;;11.27;8.00;;;10.80;80.40;;;;;;6301092;28;20463;-69
2022/04/05 09:29:07;;;;;;;9.53;8.53;;;10.90;78.90;;;;;;6304391;28;20478;-69
2022/04/05 09:32:31;;;;;;;10.93;7.27;;;11.00;79.00;;;;;;6305724;28;20493;-67
2022/04/05 09:35:43;;;;;;;8.63;7.73;;;11.10;78.20;;;;;;6302772;28;20902;-67
2022/04/05 09:38:46;;;;;;;10.43;8.20;;;11.20;77.40;;;;;;6294495;28;20431;-69
2022/04/05 09:42:00;;;;;;;8.67;7.87;;;11.40;76.40;;;;;;6282753;28;20458;-69
2022/04/05 09:45:04;;;;;;;11.10;7.50;;;11.70;75.90;;;;;;6276861;28;20788;-67
2022/04/05 09:48:08;;;;;;;14.00;7.77;;;11.80;74.70;;;;;;6277278;28;20481;-66
2022/04/05 09:51:14;;;;;;;8.97;8.03;;;12.20;73.90;;;;;;6275673;28;20552;-65
2022/04/05 09:54:27;;;;;;;9.60;7.53;;;12.50;74.00;;;;;;6275061;28;20484;-66
2022/04/05 09:57:32;;;;;;;12.63;8.23;;;13.00;73.10;;;;;;6273674;28;20789;-66
2022/04/05 10:00:35;;;;;;;9.87;7.93;;;13.40;70.30;;;;;;6274128;28;20493;-66
2022/04/05 10:03:39;;;;;;;9.73;7.30;;;13.70;69.00;;;;;;6286214;28;20485;-65
2022/04/05 10:06:47;;;;;;;7.70;7.00;;;13.80;66.90;;;;;;6295832;28;20465;-66
2022/04/05 10:09:50;;;;;;;9.80;7.23;;;14.00;67.30;;;;;;6299846;28;20470;-66
2022/04/05 10:12:54;;;;;;;10.53;8.10;;;14.10;65.20;;;;;;6318431;28;20476;-66
2022/04/05 10:15:58;;;;;;;8.67;7.87;;;14.10;63.50;;;;;;6325136;28;20547;-66
2022/04/05 10:19:07;;;;;;;11.70;8.03;;;14.20;62.70;;;;;;6324710;28;20468;-66
2022/04/05 10:22:12;;;;;;;10.03;8.67;;;14.30;60.80;;;;;;6325753;28;20904;-69
2022/04/05 10:25:15;;;;;;;8.47;7.67;;;14.40;61.10;;;;;;6329648;28;20469;-69
2022/04/05 10:28:22;;;;;;;10.00;8.90;;;14.70;60.40;;;;;;6320705;28;20437;-71
2022/04/05 10:31:30;;;;;;;10.05;9.05;;;14.80;58.30;;;;;;6331711;28;20455;-70
2022/04/05 10:34:41;;;;;;;8.77;7.70;;;14.90;58.00;;;;;;6330162;28;20234;-70
2022/04/05 10:37:46;;;;;;;8.87;8.10;;;15.10;57.60;;;;;;6328880;28;20489;-69
2022/04/05 10:41:17;;;;;;;10.18;8.65;;;15.10;56.40;;;;;;6322435;28;20444;-66
2022/04/05 10:44:24;;;;;;;9.07;7.93;;;14.70;56.90;;;;;;6324564;28;20241;-65
2022/04/05 10:47:29;;;;;;;9.67;7.20;;;14.80;57.20;;;;;;6324223;28;20460;-66
2022/04/05 10:51:30;;;;;;;9.93;7.93;;;14.70;57.00;;;;;;6323981;28;20468;-66
2022/04/05 10:54:40;;;;;;;9.43;7.10;;;14.80;57.60;;;;;;6324451;28;20476;-66
2022/04/05 10:57:43;;;;;;;8.20;7.40;;;14.80;57.40;;;;;;6308141;28;20473;-66
2022/04/05 11:00:49;;;;;;;9.80;7.10;;;14.80;57.50;;;;;;6299131;28;20839;-65
2022/04/05 11:04:28;;;;;;;8.73;7.33;;;14.80;57.00;;;;;;6299493;28;20485;-61
2022/04/05 11:08:16;;;;;;;9.00;7.10;;;14.70;57.20;;;;;;6274573;28;20546;-64
2022/04/05 11:11:25;;;;;;;8.17;7.27;;;14.80;57.10;;;;;;6204083;28;20851;-62
2022/04/05 11:14:36;;;;;;;8.40;7.17;;;14.90;57.20;;;;;;6299005;28;20490;-64
2022/04/05 11:17:40;;;;;;;7.80;6.77;;;15.00;57.10;;;;;;6299123;28;20934;-63
2022/04/05 11:20:45;;;;;;;8.87;7.33;;;15.10;56.90;;;;;;6299722;28;20762;-64
2022/04/05 11:23:51;;;;;;;8.70;7.87;;;15.20;56.60;;;;;;6299023;28;20462;-64
2022/04/05 11:27:28;;;;;;;8.93;8.03;;;15.20;56.40;;;;;;6298413;28;20470;-65
2022/04/05 11:30:48;;;;;;;8.60;7.53;;;15.20;56.00;;;;;;6295332;28;20469;-64
2022/04/05 11:33:51;;;;;;;7.77;6.63;;;15.20;56.30;;;;;;6295336;28;20492;-65
2022/04/05 11:36:54;;;;;;;8.63;7.40;;;15.30;56.70;;;;;;6298486;28;20806;-66
2022/04/05 11:40:02;;;;;;;8.43;7.40;;;15.40;55.80;;;;;;6298427;28;20465;-64
2022/04/05 11:43:06;;;;;;;8.40;7.03;;;15.50;55.80;;;;;;6293850;28;20482;-64
2022/04/05 11:46:14;;;;;;;8.13;7.17;;;15.70;55.70;;;;;;6287178;28;20795;-62
2022/04/05 11:49:23;;;;;;;11.37;7.40;;;15.90;54.70;;;;;;6253663;28;21152;-63
2022/04/05 11:52:30;;;;;;;8.40;7.07;;;16.00;54.40;;;;;;6272382;22;20507;-65
2022/04/05 11:58:58;;;;;;;13.33;7.00;;;16.20;53.40;;;;;;6301488;28;21153;-63
2022/04/05 12:02:01;;;;;;;7.93;6.97;;;16.40;52.60;;;;;;6304616;28;20483;-66
2022/04/05 12:05:04;;;;;;;10.27;7.30;;;16.70;52.40;;;;;;6326344;28;20970;-64
2022/04/05 12:08:10;;;;;;;8.30;7.50;;;16.50;51.60;;;;;;6327020;28;20468;-66
2022/04/05 12:11:17;;;;;;;9.40;7.10;;;16.80;51.30;;;;;;6332362;28;20472;-66
2022/04/05 12:14:24;;;;;;;7.80;6.97;;;17.00;51.10;;;;;;6353593;28;20487;-65
2022/04/05 12:17:29;;;;;;;10.70;7.40;;;17.00;50.80;;;;;;6339699;28;20952;-64
2022/04/05 12:20:32;;;;;;;9.47;6.90;;;17.30;50.60;;;;;;6326893;28;20453;-62
2022/04/05 12:23:37;;;;;;;12.90;6.93;;;17.40;50.40;;;;;;6327932;28;20571;-64
2022/04/05 12:26:40;;;;;;;7.30;6.10;;;17.70;50.00;;;;;;6327982;28;20441;-65
2022/04/05 12:29:45;;;;;;;9.00;6.60;;;17.90;49.40;;;;;;6327807;28;20527;-64
2022/04/05 12:32:54;;;;;;;8.83;7.03;;;18.00;48.90;;;;;;6327503;28;20940;-63
2022/04/05 12:35:58;;;;;;;7.30;6.60;;;18.20;48.60;;;;;;6322889;28;20786;-67
2022/04/05 12:39:02;;;;;;;7.97;7.17;;;18.40;48.20;;;;;;6327213;28;20673;-64
2022/04/05 12:42:08;;;;;;;7.53;6.40;;;18.00;47.90;;;;;;6327311;28;20491;-63
2022/04/05 12:45:13;;;;;;;6.03;5.40;;;18.20;48.00;;;;;;6319469;28;20469;-63
2022/04/05 12:48:17;;;;;;;9.10;6.47;;;18.40;47.20;;;;;;6327384;28;20468;-64
2022/04/05 12:51:32;;;;;;;6.87;5.87;;;18.40;46.70;;;;;;6323758;28;20797;-65
2022/04/05 12:54:37;;;;;;;6.83;4.80;;;18.70;46.20;;;;;;6301442;28;20554;-65
2022/04/05 12:57:47;;;;;;;6.50;4.90;;;18.80;45.10;;;;;;6301802;28;20227;-65
2022/04/05 13:00:51;;;;;;;4.77;4.37;;;18.90;44.10;;;;;;6301792;28;20235;-65
2022/04/05 13:04:00;;;;;;;6.00;5.10;;;19.00;44.60;;;;;;6300834;28;20239;-64
2022/04/05 13:07:05;;;;;;;6.43;4.33;;;19.20;44.50;;;;;;6302169;28;20223;-63
2022/04/05 13:10:11;;;;;;;11.83;5.17;;;19.10;43.20;;;;;;6301815;28;20465;-63
2022/04/05 13:13:16;;;;;;;9.20;4.97;;;19.20;44.20;;;;;;6302291;28;20243;-62
2022/04/05 13:16:27;;;;;;;4.50;4.10;;;19.30;44.40;;;;;;6304917;28;20580;-63
2022/04/05 13:19:30;;;;;;;5.20;4.20;;;19.20;42.70;;;;;;6302705;28;20245;-62
2022/04/05 13:22:34;;;;;;;3.73;3.20;;;19.30;42.30;;;;;;6301094;28;20246;-66
2022/04/05 13:25:39;;;;;;;3.90;3.00;;;19.30;42.20;;;;;;6300879;28;20234;-66
2022/04/05 13:28:42;;;;;;;7.50;4.67;;;19.40;42.70;;;;;;6300297;28;20223;-66
2022/04/05 13:31:50;;;;;;;4.93;4.30;;;19.50;42.40;;;;;;6299609;28;20262;-66
2022/04/05 13:34:53;;;;;;;3.87;3.53;;;19.30;42.40;;;;;;6299641;28;20257;-66
2022/04/05 13:37:56;;;;;;;4.50;4.13;;;19.40;42.70;;;;;;6303463;28;20222;-64
2022/04/05 13:40:59;;;;;;;5.00;4.00;;;19.40;42.50;;;;;;6320263;28;20245;-65
2022/04/05 13:44:03;;;;;;;5.23;3.90;;;19.20;43.00;;;;;;6325157;28;20650;-64
2022/04/05 13:47:08;;;;;;;4.63;4.20;;;18.90;43.30;;;;;;6323968;28;20245;-66
2022/04/05 13:50:11;;;;;;;4.50;4.10;;;17.70;45.30;;;;;;6316540;28;20487;-66
2022/04/05 13:53:14;;;;;;;4.77;4.40;;;17.50;46.60;;;;;;6325533;28;20495;-66
2022/04/05 13:56:17;;;;;;;3.70;3.40;;;17.60;46.60;;;;;;6324099;28;20483;-64
2022/04/05 13:59:20;;;;;;;7.70;4.10;;;17.60;46.40;;;;;;6323486;28;20480;-65
2022/04/05 14:02:25;;;;;;;4.30;3.60;;;17.70;46.20;;;;;;6324458;28;20480;-64
2022/04/05 14:05:28;;;;;;;4.83;4.33;;;18.10;45.90;;;;;;6318905;28;20556;-63
2022/04/05 14:08:33;;;;;;;3.90;3.50;;;18.40;45.80;;;;;;6317630;28;20554;-63
2022/04/05 14:11:37;;;;;;;3.20;2.90;;;18.80;44.90;;;;;;6316648;28;20562;-63
2022/04/05 14:14:40;;;;;;;3.60;3.30;;;19.00;43.90;;;;;;6333992;28;20206;-62
2022/04/05 14:17:44;;;;;;;9.10;8.00;;;18.90;44.20;;;;;;6325499;28;20206;-62
2022/04/05 14:20:48;;;;;;;5.97;5.37;;;19.10;44.20;;;;;;6327593;28;20202;-64
2022/04/05 14:23:52;;;;;;;4.23;3.13;;;19.00;44.20;;;;;;6306891;28;20253;-62
2022/04/05 14:26:55;;;;;;;5.20;4.20;;;18.80;44.10;;;;;;6303560;28;20230;-65
2022/04/05 14:29:58;;;;;;;3.20;2.90;;;18.50;44.80;;;;;;6300037;28;20686;-66
2022/04/05 14:33:03;;;;;;;3.70;3.37;;;18.40;45.30;;;;;;6300851;28;20997;-66
2022/04/05 14:36:07;;;;;;;3.07;2.87;;;18.30;45.60;;;;;;6302484;28;20949;-66
2022/04/05 14:39:10;;;;;;;6.07;3.37;;;18.20;45.80;;;;;;6307825;28;20234;-66
2022/04/05 14:42:13;;;;;;;5.27;3.10;;;18.10;46.40;;;;;;6324878;28;20472;-65
2022/04/05 14:45:16;;;;;;;5.70;4.53;;;18.00;46.80;;;;;;6320452;28;20814;-63
2022/04/05 14:48:28;;;;;;;3.10;2.80;;;17.90;46.60;;;;;;6306236;28;20528;-62
2022/04/05 14:51:33;;;;;;;3.30;3.00;;;17.70;46.50;;;;;;6300788;28;20470;-63
2022/04/05 14:54:36;;;;;;;2.63;2.43;;;17.80;46.80;;;;;;6299813;28;20482;-63
2022/04/05 14:57:39;;;;;;;3.00;2.50;;;17.80;46.90;;;;;;6308306;28;20465;-64
2022/04/05 15:00:42;;;;;;;3.17;2.60;;;17.70;46.70;;;;;;6314401;28;20470;-64
2022/04/05 15:03:47;;;;;;;2.63;2.40;;;17.80;47.10;;;;;;6325128;28;20797;-64
2022/04/05 15:06:51;;;;;;;3.10;2.63;;;17.60;47.20;;;;;;6324672;28;20931;-63
2022/04/05 15:09:54;;;;;;;5.77;2.40;;;17.60;47.50;;;;;;6324463;28;20472;-63
2022/04/05 15:12:57;;;;;;;3.63;2.93;;;17.60;47.70;;;;;;6342175;28;20245;-65
2022/04/05 15:16:01;;;;;;;2.97;2.63;;;17.50;47.70;;;;;;6347408;28;20990;-65
2022/04/05 15:19:05;;;;;;;3.60;2.63;;;17.60;48.00;;;;;;6347349;28;20967;-66
2022/04/05 15:22:09;;;;;;;5.57;2.87;;;17.50;47.70;;;;;;6347786;28;20813;-66
2022/04/05 15:25:13;;;;;;;5.23;3.17;;;17.50;48.10;;;;;;6349151;28;20490;-67
2022/04/05 15:28:16;;;;;;;3.13;2.80;;;17.40;48.10;;;;;;6352471;28;20475;-67
2022/04/05 15:31:20;;;;;;;2.60;2.40;;;17.40;48.40;;;;;;6356340;28;20478;-66
2022/04/05 15:34:24;;;;;;;5.30;2.67;;;17.40;48.20;;;;;;6355313;28;20813;-65
2022/04/05 15:37:40;;;;;;;14.90;8.27;;;17.20;48.60;;;;;;6353385;28;20556;-63
2022/04/05 15:40:44;;;;;;;5.57;4.37;;;17.10;48.80;;;;;;6329163;28;20509;-65
2022/04/05 15:43:47;;;;;;;9.20;7.10;;;16.90;48.10;;;;;;6328820;28;20464;-63
2022/04/05 15:46:51;;;;;;;10.03;6.50;;;16.80;49.10;;;;;;6329412;28;20808;-67
2022/04/05 15:50:02;;;;;;;4.37;2.63;;;16.70;48.90;;;;;;6329073;28;20465;-66
2022/04/05 15:53:06;;;;;;;2.50;2.30;;;16.60;49.00;;;;;;6328459;28;20998;-68
2022/04/05 15:56:12;;;;;;;3.60;2.50;;;16.60;48.70;;;;;;6328297;28;20967;-62
2022/04/05 15:59:19;;;;;;;3.80;2.60;;;16.50;49.30;;;;;;6328120;28;20510;-62
2022/04/05 16:02:22;;;;;;;4.23;2.60;;;16.50;49.50;;;;;;6328225;28;20469;-63